Time;durP1;ratioP1;P1;durP2;ratioP2;P2;SDS_P1;SDS_P2;PMS_P1;PMS_P2;Temp;Humidity;BMP_temperature;BMP_pressure;BME280_temperature;BME280_humidity;BME280_pressure;Samples;Min_cycle;Max_cycle;Signal;HPM_P1;HPM_P2
2022/05/14 00:02:13;;;;;;;6.97;2.80;;;;;12.00;101473.00;;;;4948086;29;20220;-70
2022/05/14 00:05:00;;;;;;;4.90;2.90;;;;;12.10;101469.00;;;;4949356;29;20373;-69
2022/05/14 00:07:46;;;;;;;4.97;3.03;;;;;12.00;101464.00;;;;4949571;28;20223;-69
2022/05/14 00:13:03;;;;;;;8.30;3.50;;;;;11.90;101470.00;;;;4943336;29;20295;-70
2022/05/14 00:13:39;;;;;;;6.97;3.30;;;;;11.80;101467.00;;;;4948850;29;20612;-69
2022/05/14 00:16:27;;;;;;;4.00;3.17;;;;;11.70;101462.00;;;;4942422;29;20322;-69
2022/05/14 00:19:13;;;;;;;4.93;3.23;;;;;11.60;101461.00;;;;4949262;29;20224;-69
2022/05/14 00:22:00;;;;;;;4.23;3.17;;;;;11.60;101467.00;;;;4949075;29;20268;-69
2022/05/14 00:24:46;;;;;;;4.77;3.53;;;;;11.60;101459.00;;;;4949001;29;20307;-70
2022/05/14 00:27:32;;;;;;;7.10;3.20;;;;;11.60;101467.00;;;;4943202;29;20216;-70
2022/05/14 00:30:23;;;;;;;6.93;2.90;;;;;11.60;101461.00;;;;4949178;29;20775;-70
2022/05/14 00:33:10;;;;;;;4.60;3.33;;;;;11.60;101461.00;;;;4948353;29;20244;-70
2022/05/14 00:35:56;;;;;;;6.70;3.97;;;;;11.70;101463.00;;;;4956235;28;20239;-69
2022/05/14 00:38:43;;;;;;;7.63;3.43;;;;;11.50;101450.00;;;;4949209;29;20414;-69
2022/05/14 00:41:29;;;;;;;5.53;2.93;;;;;11.30;101461.00;;;;4949198;29;20216;-71
2022/05/14 00:44:16;;;;;;;6.13;3.47;;;;;11.30;101456.00;;;;4948230;29;20222;-69
2022/05/14 00:47:05;;;;;;;7.13;3.13;;;;;11.40;101449.00;;;;4948704;29;20291;-67
2022/05/14 00:49:55;;;;;;;5.73;3.03;;;;;11.30;101448.00;;;;4949062;29;20259;-68
2022/05/14 00:52:42;;;;;;;5.03;3.13;;;;;11.30;101451.00;;;;5644505;23;20237;-70
2022/05/14 00:55:29;;;;;;;3.90;2.67;;;;;11.20;101444.00;;;;4943402;28;20321;-70
2022/05/14 00:58:21;;;;;;;9.70;3.20;;;;;11.20;101451.00;;;;4946497;29;20211;-69
2022/05/14 01:01:08;;;;;;;6.10;3.23;;;;;11.10;101451.00;;;;4947382;28;20204;-70
2022/05/14 01:03:54;;;;;;;5.90;3.07;;;;;11.20;101451.00;;;;4929942;29;20316;-70
2022/05/14 01:06:49;;;;;;;4.97;2.97;;;;;11.20;101450.00;;;;4916027;29;20221;-70
2022/05/14 01:09:36;;;;;;;5.60;2.80;;;;;11.10;101457.00;;;;4923306;29;20697;-70
2022/05/14 01:12:24;;;;;;;6.13;3.00;;;;;11.20;101456.00;;;;4920729;29;20279;-70
2022/05/14 01:15:14;;;;;;;8.03;3.63;;;;;11.20;101445.00;;;;4929502;29;20228;-70
2022/05/14 01:18:01;;;;;;;4.43;2.60;;;;;11.10;101410.00;;;;4929477;29;20291;-70
2022/05/14 01:20:52;;;;;;;3.73;2.90;;;;;11.10;101445.00;;;;4916546;29;20211;-71
2022/05/14 01:26:51;;;;;;;3.67;2.60;;;;;11.10;101448.00;;;;4918172;29;20213;-70
2022/05/14 01:29:40;;;;;;;3.97;2.67;;;;;11.10;101443.00;;;;4927755;29;20221;-70
2022/05/14 01:32:26;;;;;;;4.30;3.00;;;;;11.00;101449.00;;;;4935237;29;20996;-70
2022/05/14 01:35:15;;;;;;;5.67;2.60;;;;;10.90;101449.00;;;;4934583;29;20339;-71
2022/05/14 01:38:02;;;;;;;5.17;2.73;;;;;11.00;101458.00;;;;4927980;29;20217;-71
2022/05/14 01:40:48;;;;;;;6.37;2.90;;;;;11.00;101448.00;;;;4932217;29;20351;-71
2022/05/14 01:43:36;;;;;;;5.67;2.83;;;;;11.20;101457.00;;;;4922155;29;20874;-70
2022/05/14 01:46:23;;;;;;;6.87;3.30;;;;;11.10;101456.00;;;;4928934;29;20212;-70
2022/05/14 01:49:10;;;;;;;4.77;2.93;;;;;11.00;101454.00;;;;4935769;29;20231;-70
2022/05/14 01:51:56;;;;;;;7.70;3.20;;;;;11.00;101452.00;;;;4928691;29;20597;-69
2022/05/14 01:54:42;;;;;;;6.53;3.20;;;;;11.00;101458.00;;;;4922955;29;20733;-68
2022/05/14 01:57:29;;;;;;;6.13;2.80;;;;;10.90;101456.00;;;;4921542;29;20212;-70
2022/05/14 02:00:18;;;;;;;3.67;2.87;;;;;10.90;101460.00;;;;4927110;29;20255;-69
2022/05/14 02:03:04;;;;;;;4.33;2.90;;;;;10.90;101464.00;;;;4926993;29;20233;-69
2022/05/14 02:05:50;;;;;;;4.17;3.00;;;;;11.00;101460.00;;;;4935426;29;20261;-71
2022/05/14 02:08:37;;;;;;;6.00;3.50;;;;;11.10;101458.00;;;;4922409;29;20219;-69
2022/05/14 02:11:24;;;;;;;5.90;2.90;;;;;11.00;101458.00;;;;4929849;29;20217;-70
2022/05/14 02:14:12;;;;;;;6.57;3.13;;;;;11.00;101457.00;;;;4922877;29;20889;-71
2022/05/14 02:17:00;;;;;;;4.07;3.07;;;;;11.00;101452.00;;;;4929064;29;20576;-70
2022/05/14 02:19:48;;;;;;;6.50;3.20;;;;;11.00;101452.00;;;;4932795;29;20729;-70
2022/05/14 02:22:34;;;;;;;3.87;3.20;;;;;11.00;101452.00;;;;4925539;29;20355;-70
2022/05/14 02:25:21;;;;;;;6.57;3.10;;;;;11.00;101455.00;;;;4932126;29;20216;-70
2022/05/14 02:28:07;;;;;;;5.43;3.13;;;;;10.90;101451.00;;;;4932266;29;20223;-70
2022/05/14 02:30:53;;;;;;;7.67;3.20;;;;;11.00;101447.00;;;;4932163;29;20923;-71
2022/05/14 02:33:45;;;;;;;9.67;3.50;;;;;10.90;101442.00;;;;4926011;29;20264;-71
2022/05/14 02:36:32;;;;;;;4.37;3.00;;;;;10.90;101448.00;;;;4931970;29;20213;-70
2022/05/14 02:39:18;;;;;;;6.27;3.13;;;;;10.90;101460.00;;;;4937378;29;20290;-69
2022/05/14 02:42:04;;;;;;;7.13;3.60;;;;;10.90;101454.00;;;;4924391;29;20264;-70
2022/05/14 02:44:51;;;;;;;5.50;3.47;;;;;11.00;101455.00;;;;4931972;29;20368;-69
2022/05/14 02:47:37;;;;;;;9.10;3.60;;;;;10.90;101444.00;;;;4925612;29;20731;-70
2022/05/14 02:50:25;;;;;;;9.33;3.57;;;;;11.00;101456.00;;;;4926025;29;20337;-71
2022/05/14 02:53:11;;;;;;;6.20;3.57;;;;;11.00;101452.00;;;;4931419;29;20244;-70
2022/05/14 02:55:58;;;;;;;7.93;3.80;;;;;11.00;101443.00;;;;4924718;29;20260;-71
2022/05/14 03:01:50;;;;;;;6.53;3.53;;;;;11.00;101459.00;;;;4923603;29;20217;-70
2022/05/14 03:04:39;;;;;;;9.97;4.07;;;;;10.90;101444.00;;;;4920631;29;20244;-70
2022/05/14 03:07:26;;;;;;;5.03;3.40;;;;;10.80;101447.00;;;;4931562;29;20809;-70
2022/05/14 03:10:13;;;;;;;6.60;3.30;;;;;10.90;101446.00;;;;4931579;29;20212;-71
2022/05/14 03:13:02;;;;;;;5.37;3.63;;;;;10.90;101451.00;;;;4931352;29;20780;-71
2022/05/14 03:15:49;;;;;;;6.33;3.83;;;;;10.90;101454.00;;;;4929089;29;20213;-71
2022/05/14 03:18:35;;;;;;;11.77;4.27;;;;;11.00;101454.00;;;;4920526;29;20218;-70
2022/05/14 03:21:21;;;;;;;6.57;3.83;;;;;10.90;101443.00;;;;4930555;29;20223;-70
2022/05/14 03:24:10;;;;;;;8.47;3.70;;;;;10.80;101451.00;;;;4929716;29;20283;-70
2022/05/14 03:26:56;;;;;;;5.63;3.63;;;;;11.00;101458.00;;;;4931544;29;20205;-70
2022/05/14 03:29:43;;;;;;;6.50;3.47;;;;;10.90;101457.00;;;;4924768;29;20215;-71
2022/05/14 03:32:29;;;;;;;7.33;3.73;;;;;10.90;101446.00;;;;4922837;29;20257;-69
2022/05/14 03:35:15;;;;;;;6.50;3.87;;;;;10.90;101453.00;;;;4929026;29;20241;-70
2022/05/14 03:38:03;;;;;;;5.77;4.10;;;;;10.90;101443.00;;;;4928511;29;20221;-71
2022/05/14 03:40:50;;;;;;;5.77;3.93;;;;;10.90;101450.00;;;;4930485;29;20220;-71
2022/05/14 03:43:37;;;;;;;7.80;3.83;;;;;10.90;101463.00;;;;4926894;29;20372;-71
2022/05/14 03:46:23;;;;;;;5.43;3.77;;;;;11.00;101468.00;;;;4930495;29;20305;-71
2022/05/14 03:49:09;;;;;;;8.07;3.83;;;;;10.90;101457.00;;;;4930810;29;20213;-70
2022/05/14 03:51:56;;;;;;;7.50;4.00;;;;;10.90;101465.00;;;;4931228;29;20833;-71
2022/05/14 03:54:48;;;;;;;8.80;4.50;;;;;10.90;101457.00;;;;4920311;29;20613;-70
2022/05/14 03:57:35;;;;;;;9.47;4.37;;;;;10.90;101460.00;;;;4916133;29;20353;-70
2022/05/14 04:00:21;;;;;;;8.10;4.33;;;;;10.90;101456.00;;;;4929526;29;20220;-70
2022/05/14 04:03:08;;;;;;;8.73;4.30;;;;;10.90;101469.00;;;;4930011;29;20323;-71
2022/05/14 04:05:54;;;;;;;6.60;4.07;;;;;10.90;101472.00;;;;4930725;29;20216;-71
2022/05/14 04:08:40;;;;;;;7.77;3.53;;;;;10.90;101466.00;;;;4919434;29;20209;-70
2022/05/14 04:11:26;;;;;;;7.67;3.93;;;;;10.80;101468.00;;;;4930275;29;20290;-70
2022/05/14 04:14:14;;;;;;;6.80;4.03;;;;;10.80;101470.00;;;;4930084;29;20234;-70
2022/05/14 04:17:00;;;;;;;6.43;4.03;;;;;10.80;101467.00;;;;4930715;29;20337;-70
2022/05/14 04:19:46;;;;;;;7.73;4.23;;;;;10.90;101469.00;;;;4930430;29;20750;-70
2022/05/14 04:22:33;;;;;;;9.57;4.13;;;;;11.00;101471.00;;;;4915328;29;20734;-71
2022/05/14 04:25:19;;;;;;;7.73;4.00;;;;;11.00;101477.00;;;;4921922;29;20231;-71
2022/05/14 04:28:12;;;;;;;8.73;3.90;;;;;11.00;101474.00;;;;4930103;29;20714;-70
2022/05/14 04:30:59;;;;;;;10.40;4.00;;;;;10.90;101468.00;;;;4930003;29;20309;-70
2022/05/14 04:33:46;;;;;;;8.47;4.07;;;;;10.90;101479.00;;;;4929742;29;20310;-71
2022/05/14 04:36:32;;;;;;;8.23;3.80;;;;;10.90;101492.00;;;;4922925;29;20217;-71
2022/05/14 04:39:18;;;;;;;10.50;4.40;;;;;11.00;101489.00;;;;4927683;29;20219;-70
2022/05/14 04:42:07;;;;;;;11.93;4.00;;;;;11.00;101494.00;;;;4929052;29;20577;-71
2022/05/14 04:44:53;;;;;;;8.40;3.80;;;;;11.00;101490.00;;;;4928433;29;20920;-71
2022/05/14 04:47:42;;;;;;;13.10;4.23;;;;;11.00;101491.00;;;;4917316;29;20755;-70
2022/05/14 04:50:28;;;;;;;9.80;4.57;;;;;11.00;101491.00;;;;4920999;29;20209;-71
2022/05/14 04:53:15;;;;;;;8.53;4.63;;;;;11.00;101492.00;;;;4929117;29;20240;-70
2022/05/14 04:56:02;;;;;;;10.40;4.60;;;;;11.10;101495.00;;;;4929919;29;20818;-70
2022/05/14 04:58:48;;;;;;;7.33;4.00;;;;;11.10;101502.00;;;;4927085;29;20839;-70
2022/05/14 05:01:34;;;;;;;9.03;3.87;;;;;11.20;101496.00;;;;4922983;29;20695;-71
2022/05/14 05:04:20;;;;;;;11.30;4.30;;;;;11.20;101506.00;;;;4927158;29;20322;-71
2022/05/14 05:07:07;;;;;;;8.23;4.07;;;;;11.20;101495.00;;;;4926859;29;20205;-70
2022/05/14 05:09:53;;;;;;;5.83;3.60;;;;;11.30;101508.00;;;;4929875;29;20224;-71
2022/05/14 05:12:40;;;;;;;6.47;4.17;;;;;11.40;101504.00;;;;4910508;29;20214;-71
2022/05/14 05:15:26;;;;;;;8.83;4.43;;;;;11.50;101512.00;;;;4928882;29;20216;-70
2022/05/14 05:18:13;;;;;;;5.97;4.17;;;;;11.60;101504.00;;;;4921587;29;20273;-71
2022/05/14 05:21:01;;;;;;;9.00;4.40;;;;;11.90;101513.00;;;;4929462;29;20219;-71
2022/05/14 05:23:47;;;;;;;12.07;4.00;;;;;12.00;101517.00;;;;4929571;29;20236;-71
2022/05/14 05:26:34;;;;;;;15.07;5.30;;;;;12.10;101524.00;;;;4929720;29;20257;-71
2022/05/14 05:29:20;;;;;;;7.73;4.47;;;;;12.20;101520.00;;;;4920401;29;20960;-71
2022/05/14 05:32:07;;;;;;;7.80;4.27;;;;;12.30;101513.00;;;;4929226;29;20208;-71
2022/05/14 05:34:53;;;;;;;8.07;4.17;;;;;12.30;101520.00;;;;4929590;29;20807;-73
2022/05/14 05:37:41;;;;;;;7.70;4.07;;;;;12.40;101525.00;;;;4923884;29;20297;-72
2022/05/14 05:40:27;;;;;;;7.60;4.30;;;;;12.30;101530.00;;;;4935040;29;20216;-71
2022/05/14 05:43:14;;;;;;;11.83;4.13;;;;;12.40;101520.00;;;;4929393;29;20230;-71
2022/05/14 05:46:00;;;;;;;9.20;4.40;;;;;12.40;101520.00;;;;4923436;29;20228;-71
2022/05/14 05:48:46;;;;;;;5.47;3.77;;;;;12.40;101533.00;;;;4934804;29;20725;-71
2022/05/14 05:51:32;;;;;;;7.03;3.80;;;;;12.50;101540.00;;;;4928763;28;20227;-70
2022/05/14 05:57:32;;;;;;;5.93;4.00;;;;;12.70;101532.00;;;;4933206;29;20396;-72
2022/05/14 06:00:20;;;;;;;9.50;4.73;;;;;12.60;101550.00;;;;4934937;29;20307;-71
2022/05/14 06:03:06;;;;;;;8.13;4.13;;;;;12.70;101555.00;;;;4928097;29;20331;-71
2022/05/14 06:05:56;;;;;;;6.77;4.00;;;;;12.70;101554.00;;;;4935775;29;20713;-71
2022/05/14 06:08:42;;;;;;;6.70;3.83;;;;;12.70;101560.00;;;;4929952;29;20685;-70
2022/05/14 06:11:31;;;;;;;10.83;5.20;;;;;12.70;101543.00;;;;4928855;29;20212;-71
2022/05/14 06:14:18;;;;;;;11.60;5.90;;;;;12.70;101545.00;;;;4935369;29;20284;-72
2022/05/14 06:17:04;;;;;;;7.47;4.77;;;;;12.80;101552.00;;;;4928480;29;20847;-74
2022/05/14 06:19:51;;;;;;;7.67;4.50;;;;;12.90;101541.00;;;;4933950;29;20237;-72
2022/05/14 06:22:37;;;;;;;9.90;4.10;;;;;13.00;101541.00;;;;4936933;29;20208;-72
2022/05/14 06:25:24;;;;;;;9.23;4.37;;;;;13.00;101543.00;;;;4917874;29;20237;-72
2022/05/14 06:28:11;;;;;;;9.87;4.33;;;;;13.10;101555.00;;;;4934888;29;20208;-71
2022/05/14 06:30:58;;;;;;;13.77;4.77;;;;;13.10;101559.00;;;;4933479;29;20205;-72
2022/05/14 06:33:47;;;;;;;6.00;3.83;;;;;13.30;101574.00;;;;4937126;29;20612;-71
2022/05/14 06:36:33;;;;;;;9.13;4.60;;;;;13.30;101556.00;;;;4931182;29;20220;-71
2022/05/14 06:39:20;;;;;;;9.27;4.40;;;;;13.30;101557.00;;;;4944715;29;20260;-71
2022/05/14 06:42:07;;;;;;;5.60;4.10;;;;;13.40;101571.00;;;;4938560;29;20215;-73
2022/05/14 06:44:56;;;;;;;8.53;4.20;;;;;13.40;101555.00;;;;4945528;29;20229;-71
2022/05/14 06:47:44;;;;;;;11.23;5.27;;;;;13.60;101560.00;;;;4947183;29;20248;-70
2022/05/14 06:50:35;;;;;;;6.23;4.37;;;;;13.60;101565.00;;;;4946654;29;20237;-70
2022/05/14 06:53:22;;;;;;;9.90;4.13;;;;;13.80;101564.00;;;;4929566;29;20290;-69
2022/05/14 06:56:11;;;;;;;11.53;4.73;;;;;13.80;101574.00;;;;4944453;29;20213;-70
2022/05/14 06:58:59;;;;;;;9.53;4.83;;;;;13.80;101565.00;;;;4940012;29;20700;-70
2022/05/14 07:01:48;;;;;;;9.90;4.40;;;;;14.10;101563.00;;;;4928724;29;20292;-71
2022/05/14 07:07:38;;;;;;;9.30;4.57;;;;;14.10;101571.00;;;;4932491;29;20288;-69
2022/05/14 07:10:25;;;;;;;8.63;4.23;;;;;14.10;101573.00;;;;4929319;29;20218;-69
2022/05/14 07:13:11;;;;;;;13.50;4.23;;;;;14.40;101578.00;;;;4928705;29;20868;-69
2022/05/14 07:15:57;;;;;;;8.40;4.13;;;;;14.40;101575.00;;;;4928381;29;20706;-71
2022/05/14 07:18:45;;;;;;;7.30;4.23;;;;;14.40;101578.00;;;;4915431;29;20281;-69
2022/05/14 07:21:31;;;;;;;9.63;4.13;;;;;14.50;101585.00;;;;4924237;29;20221;-70
2022/05/14 07:24:21;;;;;;;9.27;3.60;;;;;14.60;101577.00;;;;4923765;29;20233;-71
2022/05/14 07:27:10;;;;;;;7.27;4.90;;;;;14.60;101582.00;;;;4922944;29;20309;-71
2022/05/14 07:29:56;;;;;;;10.87;4.90;;;;;14.70;101581.00;;;;4927487;29;20995;-70
2022/05/14 07:32:42;;;;;;;11.10;4.57;;;;;14.70;101574.00;;;;4925128;29;20341;-71
2022/05/14 07:35:31;;;;;;;9.30;4.10;;;;;14.80;101575.00;;;;4928368;29;20238;-70
2022/05/14 07:38:18;;;;;;;17.67;5.33;;;;;14.80;101576.00;;;;4928662;29;20217;-72
2022/05/14 07:41:07;;;;;;;10.57;4.80;;;;;14.90;101578.00;;;;4928447;29;20346;-70
2022/05/14 07:43:56;;;;;;;12.67;4.90;;;;;15.00;101563.00;;;;4931192;29;20224;-68
2022/05/14 07:46:44;;;;;;;7.97;4.30;;;;;14.90;101573.00;;;;4920227;29;20237;-71
2022/05/14 07:49:30;;;;;;;10.30;4.50;;;;;14.90;101567.00;;;;4922879;29;20225;-71
2022/05/14 07:52:19;;;;;;;10.37;5.37;;;;;15.20;101581.00;;;;4930927;29;20261;-69
2022/05/14 07:55:07;;;;;;;11.13;4.60;;;;;15.30;101567.00;;;;4930853;29;20221;-69
2022/05/14 07:57:54;;;;;;;11.87;4.57;;;;;15.50;101580.00;;;;4931566;29;20304;-70
2022/05/14 08:00:41;;;;;;;9.90;5.00;;;;;15.50;101579.00;;;;4926454;29;20213;-69
2022/05/14 08:03:28;;;;;;;10.40;5.07;;;;;15.60;101574.00;;;;4929720;29;20237;-71
2022/05/14 08:06:15;;;;;;;10.10;4.80;;;;;15.80;101569.00;;;;4930650;29;20234;-70
2022/05/14 08:09:03;;;;;;;8.33;4.40;;;;;15.80;101576.00;;;;4929809;29;20217;-70
2022/05/14 08:11:50;;;;;;;8.50;4.20;;;;;16.00;101584.00;;;;4927745;29;20350;-70
2022/05/14 08:14:39;;;;;;;7.87;4.33;;;;;16.00;101570.00;;;;4915511;29;20240;-73
2022/05/14 08:17:26;;;;;;;15.50;8.23;;;;;16.10;101567.00;;;;4922686;29;20353;-72
2022/05/14 08:20:13;;;;;;;12.80;5.60;;;;;16.30;101565.00;;;;4921594;29;20220;-72
2022/05/14 08:26:05;;;;;;;12.73;4.70;;;;;16.50;101577.00;;;;4919764;29;20264;-71
2022/05/14 08:28:51;;;;;;;11.20;4.20;;;;;16.40;101568.00;;;;4920129;29;20210;-72
2022/05/14 08:31:38;;;;;;;9.00;4.37;;;;;16.60;101571.00;;;;4926118;29;20216;-72
2022/05/14 08:34:24;;;;;;;11.50;4.87;;;;;16.70;101573.00;;;;4929995;29;20633;-71
2022/05/14 08:37:11;;;;;;;9.10;4.13;;;;;17.10;101583.00;;;;4929095;29;20233;-70
2022/05/14 08:39:58;;;;;;;9.73;4.33;;;;;17.30;101580.00;;;;4932188;29;20269;-71
2022/05/14 08:42:48;;;;;;;8.70;4.40;;;;;17.40;101567.00;;;;4929918;29;20224;-72
2022/05/14 08:45:41;;;;;;;10.53;3.77;;;;;17.60;101576.00;;;;4922837;29;20209;-72
2022/05/14 08:48:32;;;;;;;10.57;4.03;;;;;17.80;101569.00;;;;4913951;29;20206;-73
2022/05/14 08:51:21;;;;;;;12.53;4.70;;;;;17.90;101588.00;;;;4911062;29;20589;-68
2022/05/14 08:54:08;;;;;;;9.20;4.27;;;;;18.10;101589.00;;;;4922416;29;20232;-72
2022/05/14 08:57:04;;;;;;;12.03;4.30;;;;;18.00;101579.00;;;;4925492;29;20292;-71
2022/05/14 08:59:55;;;;;;;7.93;4.13;;;;;17.90;101566.00;;;;4929166;29;20217;-68
2022/05/14 09:02:44;;;;;;;9.53;4.60;;;;;18.20;101581.00;;;;4925694;29;20209;-71
2022/05/14 09:05:33;;;;;;;14.80;4.30;;;;;18.50;101582.00;;;;4922033;29;20212;-72
2022/05/14 09:08:19;;;;;;;9.10;3.83;;;;;18.30;101574.00;;;;4922114;29;20225;-69
2022/05/14 09:11:11;;;;;;;11.60;4.60;;;;;18.60;101574.00;;;;4929553;29;20204;-71
2022/05/14 09:14:01;;;;;;;9.77;4.13;;;;;18.80;101581.00;;;;4929754;29;20233;-71
2022/05/14 09:16:50;;;;;;;6.60;4.13;;;;;18.80;101565.00;;;;4924540;29;20225;-71
2022/05/14 09:19:39;;;;;;;10.60;5.17;;;;;19.00;101580.00;;;;4921168;29;20217;-72
2022/05/14 09:22:31;;;;;;;11.17;4.73;;;;;19.10;101563.00;;;;4927467;29;20464;-72
2022/05/14 09:25:21;;;;;;;7.97;4.30;;;;;19.20;101572.00;;;;4929673;29;20329;-69
2022/05/14 09:28:10;;;;;;;8.87;4.20;;;;;19.50;101574.00;;;;4929479;29;20606;-71
2022/05/14 09:30:59;;;;;;;11.73;4.60;;;;;19.80;101571.00;;;;4921903;29;20296;-71
2022/05/14 09:33:47;;;;;;;14.63;4.13;;;;;19.80;101571.00;;;;4915911;29;20995;-71
2022/05/14 09:36:54;;;;;;;9.13;4.40;;;;;19.90;101569.00;;;;4916749;29;20754;-74
2022/05/14 09:39:41;;;;;;;8.23;3.87;;;;;20.00;101574.00;;;;4923224;29;20212;-72
2022/05/14 09:42:41;;;;;;;9.53;3.73;;;;;20.20;101571.00;;;;4928802;29;20349;-72
2022/05/14 09:45:33;;;;;;;9.13;4.33;;;;;20.20;101554.00;;;;4929061;29;20209;-71
2022/05/14 09:48:22;;;;;;;6.63;3.43;;;;;20.30;101576.00;;;;4929382;29;20237;-74
2022/05/14 09:51:10;;;;;;;13.07;4.30;;;;;20.40;101566.00;;;;4929409;29;20236;-72
2022/05/14 09:54:08;;;;;;;17.67;4.63;;;;;20.50;101572.00;;;;4929116;29;20233;-70
2022/05/14 09:57:10;;;;;;;8.40;4.43;;;;;20.60;101567.00;;;;4925056;29;20213;-71
2022/05/14 10:00:06;;;;;;;14.57;4.03;;;;;20.60;101573.00;;;;4918205;29;20225;-72
2022/05/14 10:03:05;;;;;;;5.37;2.93;;;;;20.50;101580.00;;;;4926159;29;20220;-74
2022/05/14 10:06:02;;;;;;;10.30;3.73;;;;;20.20;101570.00;;;;4929447;29;20409;-72
2022/05/14 10:09:01;;;;;;;12.83;4.80;;;;;20.30;101580.00;;;;4910869;29;20268;-69
2022/05/14 10:11:54;;;;;;;6.53;3.80;;;;;20.30;101568.00;;;;4924058;29;20208;-72
2022/05/14 10:14:53;;;;;;;8.27;3.27;;;;;20.40;101570.00;;;;4917198;29;20357;-71
2022/05/14 10:17:50;;;;;;;9.63;3.60;;;;;20.90;101573.00;;;;4922852;29;20230;-72
2022/05/14 10:20:55;;;;;;;10.50;3.53;;;;;21.40;101565.00;;;;4918180;29;20223;-72
2022/05/14 10:27:32;;;;;;;5.87;2.93;;;;;21.50;101566.00;;;;4917966;29;20361;-72
2022/05/14 10:30:25;;;;;;;3.50;2.90;;;;;21.60;101568.00;;;;4927155;29;20221;-73
2022/05/14 10:33:21;;;;;;;9.57;4.10;;;;;21.50;101569.00;;;;4930440;29;20246;-72
2022/05/14 10:36:16;;;;;;;4.53;3.00;;;;;21.20;101575.00;;;;4924823;29;20222;-72
2022/05/14 10:39:10;;;;;;;7.93;3.70;;;;;21.60;101575.00;;;;4930092;29;20207;-71
2022/05/14 10:42:04;;;;;;;10.43;4.00;;;;;21.40;101575.00;;;;4922705;29;20320;-72
2022/05/14 10:44:54;;;;;;;11.47;3.53;;;;;21.10;101566.00;;;;4921686;29;20230;-72
2022/05/14 10:47:45;;;;;;;8.13;3.37;;;;;21.50;101578.00;;;;4932488;29;21006;-71
2022/05/14 10:50:32;;;;;;;7.40;3.00;;;;;22.10;101574.00;;;;4926877;29;20210;-72
2022/05/14 10:53:18;;;;;;;8.80;3.67;;;;;22.30;101578.00;;;;4931763;29;20624;-71
2022/05/14 10:56:10;;;;;;;6.00;2.90;;;;;22.40;101579.00;;;;4932349;29;20223;-70
2022/05/14 10:59:04;;;;;;;9.30;3.50;;;;;22.60;101575.00;;;;4930129;29;20223;-69
2022/05/14 11:02:02;;;;;;;6.93;3.07;;;;;22.80;101584.00;;;;4921673;29;20758;-71
2022/05/14 11:04:51;;;;;;;8.13;3.03;;;;;22.80;101571.00;;;;4926726;29;20386;-71
2022/05/14 11:07:42;;;;;;;11.80;3.43;;;;;23.10;101576.00;;;;4924907;29;20248;-72
2022/05/14 11:10:34;;;;;;;6.90;3.10;;;;;22.90;101572.00;;;;4931744;29;20249;-72
2022/05/14 11:13:25;;;;;;;7.00;2.97;;;;;22.50;101578.00;;;;4929296;29;20331;-70
2022/05/14 11:16:13;;;;;;;8.17;3.20;;;;;22.00;101579.00;;;;4931269;29;20212;-71
2022/05/14 11:19:04;;;;;;;5.53;3.00;;;;;21.80;101580.00;;;;4931767;29;20224;-73
2022/05/14 11:21:50;;;;;;;5.57;2.70;;;;;21.80;101580.00;;;;4920958;29;20213;-71
2022/05/14 11:24:39;;;;;;;8.23;2.93;;;;;21.90;101578.00;;;;4931771;29;20235;-71
2022/05/14 11:27:32;;;;;;;5.17;2.60;;;;;22.50;101583.00;;;;4931507;29;20220;-71
2022/05/14 11:30:30;;;;;;;14.07;3.83;;;;;22.70;101581.00;;;;4923540;29;20228;-73
2022/05/14 11:33:24;;;;;;;8.27;3.40;;;;;22.90;101578.00;;;;4929561;29;20304;-72
2022/05/14 11:36:29;;;;;;;6.20;3.03;;;;;22.60;101586.00;;;;4922821;29;21046;-71
2022/05/14 11:39:29;;;;;;;8.37;3.40;;;;;22.70;101596.00;;;;4937140;29;20338;-71
2022/05/14 11:42:29;;;;;;;8.73;3.10;;;;;22.90;101584.00;;;;4929771;29;20225;-72
2022/05/14 11:45:19;;;;;;;10.67;3.53;;;;;22.80;101599.00;;;;4927903;29;20288;-70
2022/05/14 11:48:12;;;;;;;7.27;3.43;;;;;22.40;101588.00;;;;4922262;29;20237;-72
2022/05/14 11:51:06;;;;;;;8.20;3.80;;;;;22.20;101583.00;;;;4929204;29;20213;-71
2022/05/14 11:54:02;;;;;;;7.47;3.63;;;;;22.50;101594.00;;;;4919804;29;20261;-71
2022/05/14 11:57:00;;;;;;;7.23;3.60;;;;;23.10;101581.00;;;;4925932;29;20267;-71
2022/05/14 11:59:53;;;;;;;14.63;3.40;;;;;23.80;101582.00;;;;4925403;29;20299;-71
2022/05/14 12:02:45;;;;;;;8.00;3.10;;;;;24.20;101582.00;;;;4930766;29;20235;-69
2022/05/14 12:05:38;;;;;;;6.40;2.97;;;;;24.40;101583.00;;;;4919899;29;20230;-71
2022/05/14 12:08:47;;;;;;;9.43;3.57;;;;;24.80;101563.00;;;;4921300;29;20747;-74
2022/05/14 12:11:36;;;;;;;7.00;3.00;;;;;25.30;101586.00;;;;4929981;29;20217;-70
2022/05/14 12:14:29;;;;;;;4.87;2.70;;;;;25.10;101581.00;;;;4929071;29;20262;-72
2022/05/14 12:17:19;;;;;;;5.37;2.37;;;;;25.00;101575.00;;;;4930354;29;20847;-72
2022/05/14 12:20:06;;;;;;;9.60;2.80;;;;;25.60;101583.00;;;;4930285;29;20284;-73
2022/05/14 12:22:57;;;;;;;6.23;2.90;;;;;25.60;101574.00;;;;4922613;29;20220;-71
2022/05/14 12:25:45;;;;;;;5.53;3.23;;;;;25.50;101569.00;;;;4924278;29;20265;-72
2022/05/14 12:28:34;;;;;;;9.73;2.80;;;;;25.80;101573.00;;;;4922339;29;20303;-72
2022/05/14 12:34:37;;;;;;;11.03;3.20;;;;;25.30;101576.00;;;;4929997;29;20237;-72
2022/05/14 12:37:26;;;;;;;10.03;3.30;;;;;25.50;101575.00;;;;4928167;29;20589;-73
2022/05/14 12:40:26;;;;;;;4.07;2.37;;;;;25.40;101579.00;;;;4935706;29;20561;-70
2022/05/14 12:43:15;;;;;;;5.47;2.80;;;;;24.70;101580.00;;;;4925440;29;20245;-72
2022/05/14 12:46:04;;;;;;;5.90;2.83;;;;;25.20;101573.00;;;;4930021;29;20350;-70
2022/05/14 12:48:54;;;;;;;10.43;3.40;;;;;25.00;101576.00;;;;4929180;29;20225;-72
2022/05/14 12:51:47;;;;;;;6.60;3.27;;;;;25.40;101577.00;;;;4928189;29;20225;-74
2022/05/14 12:54:35;;;;;;;9.97;3.10;;;;;25.20;101574.00;;;;4927855;29;20240;-72
2022/05/14 12:57:24;;;;;;;10.87;2.80;;;;;24.90;101572.00;;;;4926536;29;20842;-69
2022/05/14 13:00:15;;;;;;;8.00;2.30;;;;;24.20;101567.00;;;;4925210;29;20220;-71
2022/05/14 13:03:10;;;;;;;5.77;2.80;;;;;24.00;101571.00;;;;4928803;29;20761;-72
2022/05/14 13:06:00;;;;;;;7.80;2.80;;;;;24.30;101568.00;;;;4925246;29;20212;-71
2022/05/14 13:08:49;;;;;;;11.13;3.23;;;;;25.10;101565.00;;;;4918468;29;20319;-70
2022/05/14 13:11:38;;;;;;;7.63;2.97;;;;;25.10;101570.00;;;;4920830;29;20289;-71
2022/05/14 13:14:29;;;;;;;4.13;2.50;;;;;24.80;101571.00;;;;4922584;29;20314;-71
2022/05/14 13:17:16;;;;;;;7.30;2.80;;;;;25.20;101573.00;;;;4921807;29;20847;-70
2022/05/14 13:20:06;;;;;;;8.00;2.70;;;;;24.90;101569.00;;;;4921712;29;20253;-70
2022/05/14 13:23:04;;;;;;;6.37;2.97;;;;;24.50;101568.00;;;;4929266;29;20233;-73
2022/05/14 13:25:59;;;;;;;6.50;2.60;;;;;25.10;101555.00;;;;4923801;29;20220;-71
2022/05/14 13:28:46;;;;;;;7.87;3.27;;;;;25.80;101554.00;;;;4920515;29;20233;-71
2022/05/14 13:31:34;;;;;;;7.23;2.63;;;;;26.20;101557.00;;;;4925830;29;20278;-70
2022/05/14 13:37:35;;;;;;;7.80;2.40;;;;;27.40;101551.00;;;;4926131;29;20217;-69
2022/05/14 13:40:25;;;;;;;8.52;2.75;;;;;27.30;101559.00;;;;4926413;29;20237;-71
2022/05/14 13:43:14;;;;;;;7.13;2.63;;;;;27.00;101559.00;;;;4921166;29;20644;-70
2022/05/14 13:46:03;;;;;;;8.13;3.00;;;;;26.20;101547.00;;;;4929242;29;20324;-71
2022/05/14 13:48:53;;;;;;;8.18;3.35;;;;;26.50;101559.00;;;;4923649;29;20264;-71
2022/05/14 13:51:39;;;;;;;6.25;2.88;;;;;26.80;101540.00;;;;4922440;29;20353;-71
2022/05/14 13:54:31;;;;;;;10.77;2.90;;;;;26.30;101552.00;;;;4928658;29;20245;-71
2022/05/14 13:57:27;;;;;;;6.20;3.35;;;;;26.20;101545.00;;;;4929304;29;20599;-71
2022/05/14 14:00:22;;;;;;;6.75;2.85;;;;;26.40;101537.00;;;;4929430;29;20300;-70
2022/05/14 14:03:17;;;;;;;9.65;3.00;;;;;26.90;101540.00;;;;4920867;29;20245;-68
2022/05/14 14:06:05;;;;;;;7.22;3.47;;;;;27.50;101538.00;;;;4929160;29;20213;-73
2022/05/14 14:08:51;;;;;;;5.60;2.97;;;;;28.10;101541.00;;;;4932008;29;20227;-70
2022/05/14 14:11:41;;;;;;;4.93;2.80;;;;;28.50;101534.00;;;;4926096;29;20208;-71
2022/05/14 14:14:27;;;;;;;10.30;3.38;;;;;28.70;101527.00;;;;4932489;29;20273;-71
2022/05/14 14:17:13;;;;;;;6.15;2.92;;;;;28.40;101541.00;;;;4924646;29;20221;-71
2022/05/14 14:20:00;;;;;;;6.13;3.53;;;;;28.80;101519.00;;;;4932727;29;20303;-71